Time;durP1;ratioP1;P1;durP2;ratioP2;P2;SDS_P1;SDS_P2;PMS_P1;PMS_P2;Temp;Humidity;BMP_temperature;BMP_pressure;BME280_temperature;BME280_humidity;BME280_pressure;Samples;Min_cycle;Max_cycle;Signal;HPM_P1;HPM_P2
2023/03/03 00:00:41;;;;;;;2.40;0.80;;;2.70;99.90;;;;;;5137248;27;20446;-76
2023/03/03 00:03:11;;;;;;;2.93;1.63;;;2.80;99.90;;;;;;5137161;27;20442;-76
2023/03/03 00:05:39;;;;;;;13.87;2.53;;;2.80;99.90;;;;;;5137393;27;20454;-75
2023/03/03 00:08:05;;;;;;;2.97;0.90;;;2.80;99.90;;;;;;5136252;27;20997;-76
2023/03/03 00:10:32;;;;;;;6.83;1.80;;;2.80;99.90;;;;;;5137026;27;20455;-76
2023/03/03 00:13:00;;;;;;;1.80;1.20;;;2.80;99.90;;;;;;5137008;27;20449;-75
2023/03/03 00:15:28;;;;;;;1.23;0.70;;;2.80;99.90;;;;;;5136650;27;20926;-76
2023/03/03 00:17:55;;;;;;;4.13;1.83;;;2.80;99.90;;;;;;5136817;27;20512;-75
2023/03/03 00:20:36;;;;;;;3.03;1.30;;;2.80;99.90;;;;;;5136498;27;20455;-76
2023/03/03 00:23:28;;;;;;;4.63;1.30;;;2.70;99.90;;;;;;5136759;27;20462;-75
2023/03/03 00:25:55;;;;;;;4.33;1.23;;;2.70;99.90;;;;;;5133676;27;20476;-76
2023/03/03 00:28:29;;;;;;;5.40;1.70;;;2.70;99.90;;;;;;5136545;27;20482;-76
2023/03/03 00:30:58;;;;;;;5.83;1.13;;;2.70;99.90;;;;;;5136869;27;20435;-75
2023/03/03 00:33:31;;;;;;;10.73;1.90;;;2.60;99.90;;;;;;5136554;27;20546;-75
2023/03/03 00:36:06;;;;;;;3.07;1.17;;;2.60;99.90;;;;;;5136287;27;20521;-76
2023/03/03 00:38:35;;;;;;;5.30;2.57;;;2.50;99.90;;;;;;5136410;27;20464;-75
2023/03/03 00:41:04;;;;;;;1.40;0.70;;;2.50;99.90;;;;;;5136459;27;20474;-75
2023/03/03 00:43:36;;;;;;;5.13;2.20;;;2.40;99.90;;;;;;5136385;27;20442;-82
2023/03/03 00:46:03;;;;;;;9.50;1.63;;;2.40;99.90;;;;;;5136359;27;20469;-82
2023/03/03 00:48:41;;;;;;;0.50;0.40;;;2.30;99.90;;;;;;5136158;27;20494;-82
2023/03/03 00:51:17;;;;;;;0.60;0.60;;;2.30;99.90;;;;;;5136241;27;20423;-78
2023/03/03 00:53:44;;;;;;;4.83;1.17;;;2.20;99.90;;;;;;5135934;27;20933;-78
2023/03/03 00:56:11;;;;;;;1.50;1.40;;;2.20;99.90;;;;;;5136713;27;20447;-78
2023/03/03 00:58:39;;;;;;;10.03;1.70;;;2.20;99.90;;;;;;5135698;27;20461;-78
2023/03/03 01:01:06;;;;;;;3.27;1.70;;;2.10;99.90;;;;;;5136022;27;20443;-78
2023/03/03 01:03:32;;;;;;;2.67;1.67;;;2.10;99.90;;;;;;5135995;27;20450;-78
2023/03/03 01:05:59;;;;;;;3.40;1.00;;;2.00;99.90;;;;;;5135950;27;20453;-77
2023/03/03 01:08:26;;;;;;;2.80;1.77;;;2.00;99.90;;;;;;5135404;27;20978;-77
2023/03/03 01:10:55;;;;;;;9.60;1.80;;;1.80;99.90;;;;;;5135840;27;20454;-78
2023/03/03 01:13:24;;;;;;;7.53;1.90;;;1.70;99.90;;;;;;5135774;27;20461;-77
2023/03/03 01:15:52;;;;;;;0.50;0.50;;;1.70;99.90;;;;;;5135704;27;20453;-78
2023/03/03 01:18:19;;;;;;;3.30;1.70;;;1.60;99.90;;;;;;5135645;27;20462;-78
2023/03/03 01:20:46;;;;;;;1.00;0.63;;;1.60;99.90;;;;;;5134845;27;20439;-78
2023/03/03 01:23:14;;;;;;;2.00;0.77;;;1.50;99.90;;;;;;5135642;27;20450;-78
2023/03/03 01:25:40;;;;;;;3.53;1.50;;;1.40;99.90;;;;;;5135280;27;20450;-78
2023/03/03 01:28:08;;;;;;;0.73;0.50;;;1.40;99.90;;;;;;5135431;27;20466;-78
2023/03/03 01:30:35;;;;;;;1.27;1.27;;;1.30;99.90;;;;;;5135070;27;21019;-77
2023/03/03 01:33:03;;;;;;;1.03;1.03;;;1.30;99.90;;;;;;5135386;27;20794;-78
2023/03/03 01:35:30;;;;;;;1.07;0.97;;;1.30;99.90;;;;;;5134906;27;20482;-78
2023/03/03 01:37:57;;;;;;;1.43;1.13;;;1.20;99.90;;;;;;5135122;27;20462;-82
2023/03/03 01:40:27;;;;;;;0.93;0.93;;;1.10;99.90;;;;;;5135263;27;20442;-82
2023/03/03 01:42:54;;;;;;;0.93;0.70;;;1.10;99.90;;;;;;5135213;27;20454;-82
2023/03/03 01:45:23;;;;;;;0.90;0.90;;;1.10;99.90;;;;;;5134856;27;20446;-82
2023/03/03 01:47:59;;;;;;;0.77;0.77;;;1.10;99.90;;;;;;5135074;27;20470;-82
2023/03/03 01:50:34;;;;;;;4.83;1.33;;;1.10;99.90;;;;;;5135061;27;20470;-82
2023/03/03 01:53:04;;;;;;;7.50;1.13;;;1.00;99.90;;;;;;5135090;27;20438;-82
2023/03/03 01:55:34;;;;;;;0.67;0.67;;;1.00;99.90;;;;;;5135051;27;20450;-82
2023/03/03 01:58:03;;;;;;;3.70;2.07;;;1.00;99.90;;;;;;5135203;27;20935;-82
2023/03/03 02:00:32;;;;;;;1.20;1.00;;;1.00;99.90;;;;;;5134993;27;20431;-82
2023/03/03 02:02:59;;;;;;;2.73;1.70;;;0.90;99.90;;;;;;5134908;27;20811;-82
2023/03/03 02:05:26;;;;;;;4.97;1.77;;;0.90;99.90;;;;;;5134866;27;20453;-82
2023/03/03 02:07:54;;;;;;;1.43;1.27;;;1.00;99.90;;;;;;5134699;27;20478;-82
2023/03/03 02:10:22;;;;;;;2.40;1.07;;;1.00;99.90;;;;;;5134728;27;20844;-82
2023/03/03 02:12:50;;;;;;;3.53;2.00;;;0.90;99.90;;;;;;5134747;27;20442;-82
2023/03/03 02:15:20;;;;;;;2.07;1.30;;;0.90;99.90;;;;;;5134684;27;20427;-75
2023/03/03 02:17:49;;;;;;;1.43;1.33;;;0.90;99.90;;;;;;5134581;27;20471;-75
2023/03/03 02:20:25;;;;;;;4.00;1.80;;;0.90;99.90;;;;;;5134307;27;20442;-75
2023/03/03 02:22:58;;;;;;;2.50;0.73;;;0.80;99.90;;;;;;5134640;27;20430;-75
2023/03/03 02:25:31;;;;;;;6.33;0.83;;;0.80;99.90;;;;;;5134626;27;20796;-75
2023/03/03 02:28:00;;;;;;;1.23;0.90;;;0.80;99.90;;;;;;5134184;27;20462;-75
2023/03/03 02:30:27;;;;;;;1.60;1.50;;;0.90;99.90;;;;;;5134388;27;20481;-75
2023/03/03 02:32:54;;;;;;;8.87;2.00;;;0.90;99.90;;;;;;5133969;27;20965;-76
2023/03/03 02:35:29;;;;;;;3.43;1.57;;;0.90;99.90;;;;;;5134129;27;20482;-76
2023/03/03 02:38:01;;;;;;;3.13;2.40;;;0.90;99.90;;;;;;5134040;27;20462;-76
2023/03/03 02:40:34;;;;;;;1.27;1.27;;;0.80;99.90;;;;;;5134441;27;20427;-75
2023/03/03 02:43:05;;;;;;;1.07;1.03;;;0.80;99.90;;;;;;5134359;27;20430;-76
2023/03/03 02:45:31;;;;;;;1.60;1.10;;;0.80;99.90;;;;;;5134100;27;20910;-76
2023/03/03 02:47:58;;;;;;;0.87;0.70;;;0.70;99.90;;;;;;5134226;27;20467;-76
2023/03/03 02:50:25;;;;;;;3.17;2.03;;;0.70;99.90;;;;;;5134243;27;20847;-76
2023/03/03 02:52:51;;;;;;;2.00;0.60;;;0.70;99.90;;;;;;5133850;27;20934;-76
2023/03/03 02:55:18;;;;;;;2.53;0.90;;;0.70;99.90;;;;;;5134275;27;20450;-75
2023/03/03 02:57:45;;;;;;;1.00;0.87;;;0.70;99.90;;;;;;5134176;27;20441;-76
2023/03/03 03:00:14;;;;;;;2.87;1.40;;;0.60;99.90;;;;;;5133922;27;20431;-76
2023/03/03 03:02:40;;;;;;;4.00;1.20;;;0.60;99.90;;;;;;5134137;27;20454;-75
2023/03/03 03:05:08;;;;;;;5.40;1.80;;;0.70;99.90;;;;;;5134142;27;20470;-75
2023/03/03 03:07:35;;;;;;;0.70;0.70;;;0.70;99.90;;;;;;5133723;27;20982;-75
2023/03/03 03:10:01;;;;;;;0.53;0.53;;;0.80;99.90;;;;;;5133705;27;20853;-75
2023/03/03 03:12:28;;;;;;;2.13;0.93;;;0.90;99.90;;;;;;5134109;27;20458;-75
2023/03/03 03:14:55;;;;;;;1.80;1.70;;;1.00;99.90;;;;;;5133741;27;20447;-75
2023/03/03 03:17:23;;;;;;;5.80;0.83;;;1.10;99.90;;;;;;5134003;27;20462;-76
2023/03/03 03:19:49;;;;;;;3.60;1.43;;;1.20;99.90;;;;;;5133746;27;20968;-75
2023/03/03 03:22:17;;;;;;;1.13;1.00;;;1.20;99.90;;;;;;5133999;27;20442;-75
2023/03/03 03:24:43;;;;;;;0.80;0.80;;;1.30;99.90;;;;;;5133696;27;20934;-75
2023/03/03 03:27:10;;;;;;;7.90;1.10;;;1.30;99.90;;;;;;5133883;27;20470;-75
2023/03/03 03:29:37;;;;;;;1.23;0.70;;;1.40;99.90;;;;;;5133502;27;20851;-75
2023/03/03 03:32:04;;;;;;;6.40;1.63;;;1.40;99.90;;;;;;5133930;27;20798;-75
2023/03/03 03:34:32;;;;;;;1.77;1.47;;;1.50;99.90;;;;;;5133578;27;20438;-82
2023/03/03 03:36:59;;;;;;;2.20;1.10;;;1.60;99.90;;;;;;5133490;27;20478;-83
2023/03/03 03:39:26;;;;;;;4.13;1.23;;;1.60;99.90;;;;;;5133554;27;20933;-82
2023/03/03 03:41:52;;;;;;;0.43;0.43;;;1.60;99.90;;;;;;5133820;27;20465;-81
2023/03/03 03:44:19;;;;;;;9.03;1.80;;;1.60;99.90;;;;;;5135764;27;20439;-82
2023/03/03 03:46:46;;;;;;;1.33;1.10;;;1.60;99.90;;;;;;5137434;27;20449;-81
2023/03/03 03:49:13;;;;;;;12.27;0.83;;;1.70;99.90;;;;;;5137091;27;20973;-81
2023/03/03 03:51:41;;;;;;;0.90;0.90;;;1.70;99.90;;;;;;5137441;27;20438;-81
2023/03/03 03:54:07;;;;;;;1.53;1.20;;;1.80;99.90;;;;;;5137081;27;20438;-81
2023/03/03 03:56:34;;;;;;;3.23;1.73;;;1.80;99.90;;;;;;5137329;27;20442;-81
2023/03/03 03:59:01;;;;;;;4.83;2.23;;;1.80;99.90;;;;;;5137242;27;20444;-81
2023/03/03 04:01:27;;;;;;;0.87;0.80;;;1.80;99.90;;;;;;5137206;27;20435;-81
2023/03/03 04:03:54;;;;;;;4.10;1.57;;;1.80;99.90;;;;;;5137200;27;20443;-81
2023/03/03 04:06:21;;;;;;;0.77;0.77;;;1.90;99.90;;;;;;5137139;27;20447;-81
2023/03/03 04:08:49;;;;;;;1.93;1.83;;;1.90;99.90;;;;;;5137007;27;20478;-81
2023/03/03 04:11:17;;;;;;;1.00;0.80;;;1.80;99.90;;;;;;5136967;27;20486;-81
2023/03/03 04:13:43;;;;;;;1.77;1.00;;;1.80;99.90;;;;;;5137021;27;20462;-81
2023/03/03 04:16:10;;;;;;;5.10;1.07;;;1.80;99.90;;;;;;5136639;27;20977;-81
2023/03/03 04:18:37;;;;;;;0.53;0.53;;;1.80;99.90;;;;;;5136871;27;20467;-81
2023/03/03 04:21:04;;;;;;;2.53;1.70;;;1.80;99.90;;;;;;5136540;27;20957;-81
2023/03/03 04:23:31;;;;;;;1.13;0.93;;;1.80;99.90;;;;;;5136475;27;20956;-81
2023/03/03 04:25:59;;;;;;;1.23;0.93;;;1.80;99.90;;;;;;5136782;27;20438;-82
2023/03/03 04:28:26;;;;;;;0.73;0.53;;;1.90;99.90;;;;;;5136337;27;20474;-81
2023/03/03 04:30:52;;;;;;;1.67;1.20;;;1.90;99.90;;;;;;5136612;27;20562;-81
2023/03/03 04:33:19;;;;;;;2.83;1.00;;;1.90;99.90;;;;;;5136572;27;20442;-81
2023/03/03 04:35:46;;;;;;;4.77;1.90;;;1.90;99.90;;;;;;5136294;27;20502;-81
2023/03/03 04:38:13;;;;;;;1.03;0.80;;;1.90;99.90;;;;;;5136440;27;20474;-81
2023/03/03 04:40:40;;;;;;;4.43;1.73;;;1.90;99.90;;;;;;5136491;27;20442;-81
2023/03/03 04:43:10;;;;;;;1.10;1.00;;;1.90;99.90;;;;;;5136090;27;20937;-81
2023/03/03 04:45:37;;;;;;;1.50;1.40;;;2.00;99.90;;;;;;5136348;27;20492;-82
2023/03/03 04:48:04;;;;;;;5.73;1.80;;;2.00;99.90;;;;;;5136314;27;20470;-81
2023/03/03 04:50:30;;;;;;;2.93;1.27;;;2.00;99.90;;;;;;5136229;27;20505;-81
2023/03/03 04:52:57;;;;;;;0.70;0.70;;;2.00;99.90;;;;;;5136219;27;20443;-81
2023/03/03 04:55:24;;;;;;;2.00;1.90;;;2.00;99.90;;;;;;5136177;27;20478;-81
2023/03/03 04:57:50;;;;;;;1.60;1.20;;;2.00;99.90;;;;;;5135779;27;20992;-81
2023/03/03 05:00:19;;;;;;;5.90;1.40;;;2.00;99.90;;;;;;5136122;27;20446;-82
2023/03/03 05:02:48;;;;;;;0.93;0.93;;;2.00;99.90;;;;;;5136040;27;20447;-82
2023/03/03 05:05:15;;;;;;;1.50;1.40;;;2.00;99.90;;;;;;5135776;27;20435;-82
2023/03/03 05:07:41;;;;;;;0.80;0.80;;;2.10;99.90;;;;;;5135539;27;20996;-82
2023/03/03 05:10:09;;;;;;;2.33;2.13;;;2.10;99.90;;;;;;5135847;27;20488;-82
2023/03/03 05:12:36;;;;;;;0.40;0.40;;;2.10;99.90;;;;;;5136664;27;20454;-82
2023/03/03 05:15:03;;;;;;;3.03;1.13;;;2.10;99.90;;;;;;5135825;27;20454;-82
2023/03/03 05:17:31;;;;;;;1.50;0.97;;;2.10;99.90;;;;;;5135344;27;21008;-81
2023/03/03 05:19:58;;;;;;;1.77;1.67;;;2.10;99.90;;;;;;5135732;27;20447;-82
2023/03/03 05:22:25;;;;;;;3.13;1.00;;;2.10;99.90;;;;;;5135648;27;20455;-82
2023/03/03 05:24:52;;;;;;;1.70;1.27;;;2.10;99.90;;;;;;5135591;27;20537;-81
2023/03/03 05:27:19;;;;;;;2.87;1.10;;;2.10;99.90;;;;;;5135518;27;20989;-82
2023/03/03 05:29:46;;;;;;;5.93;1.93;;;2.10;99.90;;;;;;5135112;27;20956;-82
2023/03/03 05:32:13;;;;;;;1.83;0.97;;;2.20;99.90;;;;;;5135483;27;20454;-82
2023/03/03 05:34:41;;;;;;;1.40;1.30;;;2.20;99.90;;;;;;5135394;27;20469;-82
2023/03/03 05:37:07;;;;;;;2.30;1.10;;;2.20;99.90;;;;;;5134796;27;20498;-81
2023/03/03 05:39:34;;;;;;;4.50;2.00;;;2.20;99.90;;;;;;5135346;27;20489;-82
2023/03/03 05:42:02;;;;;;;4.10;0.90;;;2.20;99.90;;;;;;5135256;27;20447;-82
2023/03/03 05:44:28;;;;;;;3.10;1.03;;;2.30;99.90;;;;;;5134907;27;20443;-82
2023/03/03 05:46:56;;;;;;;2.67;1.00;;;2.30;99.90;;;;;;5135390;27;20454;-82
2023/03/03 05:49:23;;;;;;;2.73;0.53;;;2.30;99.90;;;;;;5135124;27;20443;-82
2023/03/03 05:51:51;;;;;;;2.27;1.30;;;2.30;99.90;;;;;;5135020;27;20475;-82
2023/03/03 05:54:18;;;;;;;1.30;1.30;;;2.30;99.90;;;;;;5135069;27;20446;-82
2023/03/03 05:56:44;;;;;;;14.53;3.07;;;2.30;99.90;;;;;;5134996;27;20446;-82
2023/03/03 05:59:11;;;;;;;11.50;1.83;;;2.30;99.90;;;;;;5134997;27;20848;-82
2023/03/03 06:01:38;;;;;;;0.50;0.50;;;2.40;99.90;;;;;;5134896;27;20443;-82
2023/03/03 06:04:04;;;;;;;1.77;1.67;;;2.40;99.90;;;;;;5134870;27;20446;-82
2023/03/03 06:06:31;;;;;;;0.87;0.60;;;2.40;99.90;;;;;;5134423;27;20454;-81
2023/03/03 06:08:59;;;;;;;3.70;1.33;;;2.40;99.90;;;;;;5134696;27;20458;-82
2023/03/03 06:11:26;;;;;;;0.80;0.80;;;2.40;99.90;;;;;;5134677;27;20838;-82
2023/03/03 06:13:52;;;;;;;1.53;1.10;;;2.40;99.90;;;;;;5134749;27;20446;-82
2023/03/03 06:16:19;;;;;;;1.33;1.23;;;2.40;99.90;;;;;;5134456;27;20957;-82
2023/03/03 06:18:46;;;;;;;2.40;1.30;;;2.40;99.90;;;;;;5134279;27;21012;-82
2023/03/03 06:21:13;;;;;;;0.60;0.60;;;2.40;99.90;;;;;;5134613;27;20447;-76
2023/03/03 06:23:41;;;;;;;1.83;1.40;;;2.50;99.90;;;;;;5134601;27;20447;-75
2023/03/03 06:26:09;;;;;;;1.03;0.60;;;2.40;99.90;;;;;;5134497;27;20447;-75
2023/03/03 06:28:36;;;;;;;4.43;1.40;;;2.50;99.90;;;;;;5134480;27;20462;-76
2023/03/03 06:31:03;;;;;;;1.13;1.03;;;2.50;99.90;;;;;;5134386;27;20855;-76
2023/03/03 06:33:29;;;;;;;4.87;1.13;;;2.50;99.90;;;;;;5134481;27;20459;-75
2023/03/03 06:35:56;;;;;;;2.83;0.97;;;2.60;99.90;;;;;;5134131;27;20496;-76
2023/03/03 06:38:23;;;;;;;1.23;0.90;;;2.60;99.90;;;;;;5133970;27;20973;-75
2023/03/03 06:40:49;;;;;;;3.60;1.60;;;2.60;99.90;;;;;;5134356;27;20450;-76
2023/03/03 06:43:17;;;;;;;1.00;0.70;;;2.60;99.90;;;;;;5134370;27;20781;-76
2023/03/03 06:45:45;;;;;;;0.60;0.60;;;2.60;99.90;;;;;;5134058;27;20942;-75
2023/03/03 06:48:12;;;;;;;3.57;2.43;;;2.60;99.90;;;;;;5133932;27;20519;-76
2023/03/03 06:50:39;;;;;;;3.27;1.37;;;2.70;99.90;;;;;;5134196;27;20474;-76
2023/03/03 06:53:11;;;;;;;1.53;0.93;;;2.70;99.90;;;;;;5133905;27;20796;-76
2023/03/03 06:55:38;;;;;;;3.60;1.60;;;2.70;99.90;;;;;;5134284;27;20801;-76
2023/03/03 06:58:11;;;;;;;1.87;1.47;;;2.70;99.90;;;;;;5134171;27;20474;-75
2023/03/03 07:00:42;;;;;;;8.80;2.93;;;2.80;99.90;;;;;;5134247;27;20427;-75
2023/03/03 07:03:14;;;;;;;1.30;1.23;;;2.80;99.90;;;;;;5134229;27;20436;-76
2023/03/03 07:05:41;;;;;;;10.73;2.20;;;2.90;99.90;;;;;;5134240;27;20434;-75
2023/03/03 07:08:14;;;;;;;2.93;1.43;;;2.90;99.90;;;;;;5134073;27;20554;-76
2023/03/03 07:10:41;;;;;;;0.97;0.87;;;2.90;99.90;;;;;;5133792;27;20814;-76
2023/03/03 07:13:18;;;;;;;7.80;1.60;;;2.90;99.90;;;;;;5134096;27;20439;-76
2023/03/03 07:15:47;;;;;;;1.97;1.87;;;2.90;99.90;;;;;;5134154;27;20438;-75
2023/03/03 07:18:25;;;;;;;1.50;1.40;;;3.00;99.90;;;;;;5134613;27;20469;-76
2023/03/03 07:20:52;;;;;;;2.30;1.63;;;3.00;99.90;;;;;;5138098;27;20422;-75
2023/03/03 07:23:23;;;;;;;6.50;1.20;;;3.00;99.90;;;;;;5137610;27;20466;-76
2023/03/03 07:25:50;;;;;;;5.33;2.50;;;3.10;99.90;;;;;;5137497;27;20898;-76
2023/03/03 07:28:23;;;;;;;4.23;1.70;;;3.20;99.90;;;;;;5137677;27;20466;-76
2023/03/03 07:30:51;;;;;;;2.17;1.53;;;3.20;99.90;;;;;;5137608;27;20536;-75
2023/03/03 07:33:25;;;;;;;1.33;1.33;;;3.30;99.90;;;;;;5138601;27;20447;-76
2023/03/03 07:35:53;;;;;;;2.53;1.07;;;3.40;99.90;;;;;;5137300;27;20883;-76
2023/03/03 07:38:31;;;;;;;3.03;1.50;;;3.30;99.90;;;;;;5137604;27;20466;-75
2023/03/03 07:41:00;;;;;;;1.50;1.40;;;3.40;99.90;;;;;;5137696;27;20427;-76
2023/03/03 07:43:37;;;;;;;3.30;1.93;;;3.50;99.90;;;;;;5137636;27;20435;-76
2023/03/03 07:46:21;;;;;;;2.20;1.40;;;3.50;99.90;;;;;;5137529;27;20444;-76
2023/03/03 07:48:49;;;;;;;4.83;2.07;;;3.60;99.90;;;;;;5137492;27;20509;-75
2023/03/03 07:51:21;;;;;;;7.53;3.07;;;3.60;99.90;;;;;;5137327;27;20509;-75
2023/03/03 07:53:49;;;;;;;2.03;1.93;;;3.60;99.90;;;;;;5137474;27;20484;-75
2023/03/03 07:56:21;;;;;;;6.20;1.77;;;3.60;99.90;;;;;;5137326;27;20454;-76
2023/03/03 07:58:48;;;;;;;3.93;1.77;;;3.70;99.90;;;;;;5137337;27;20442;-76
2023/03/03 08:01:41;;;;;;;2.63;1.43;;;3.90;99.90;;;;;;5137186;27;20458;-76
2023/03/03 08:04:21;;;;;;;1.40;0.90;;;4.00;99.90;;;;;;5137206;27;20434;-76
2023/03/03 08:06:50;;;;;;;5.60;1.37;;;4.20;99.90;;;;;;5137093;27;20437;-76
2023/03/03 08:09:36;;;;;;;6.40;2.70;;;4.40;99.90;;;;;;5136769;27;20969;-76
2023/03/03 08:12:19;;;;;;;5.60;2.70;;;4.60;99.90;;;;;;5136705;27;20477;-76
2023/03/03 08:14:47;;;;;;;1.90;1.23;;;4.70;99.90;;;;;;5137056;27;20429;-76
2023/03/03 08:17:21;;;;;;;7.53;1.60;;;4.80;99.90;;;;;;5136835;27;20462;-76
2023/03/03 08:19:48;;;;;;;5.83;1.37;;;4.90;99.90;;;;;;5136623;27;20480;-76
2023/03/03 08:22:18;;;;;;;2.93;0.90;;;4.90;99.90;;;;;;5136832;27;20665;-76
2023/03/03 08:24:45;;;;;;;3.27;1.70;;;5.00;99.90;;;;;;5136838;27;20439;-76
2023/03/03 08:27:11;;;;;;;3.17;0.80;;;5.10;99.90;;;;;;5137074;27;20860;-76
2023/03/03 08:29:38;;;;;;;1.73;1.60;;;5.30;99.90;;;;;;5136122;27;20453;-76
2023/03/03 08:32:05;;;;;;;2.90;2.10;;;5.50;99.90;;;;;;5136013;27;20861;-76
2023/03/03 08:34:33;;;;;;;8.17;3.40;;;5.70;99.90;;;;;;5136281;27;20435;-76
2023/03/03 08:37:00;;;;;;;2.83;1.93;;;5.70;99.90;;;;;;5136051;27;20508;-76
2023/03/03 08:39:27;;;;;;;1.00;0.80;;;5.80;99.90;;;;;;5136554;27;20896;-76
2023/03/03 08:41:53;;;;;;;3.30;2.50;;;6.00;99.90;;;;;;5136426;27;20443;-76
2023/03/03 08:44:20;;;;;;;6.10;2.17;;;6.10;99.90;;;;;;5136401;27;20447;-76
2023/03/03 08:46:47;;;;;;;10.23;3.17;;;6.40;99.90;;;;;;5136009;27;20937;-76
2023/03/03 08:49:13;;;;;;;1.23;1.13;;;6.80;99.90;;;;;;5136038;27;20958;-76
2023/03/03 08:51:42;;;;;;;1.87;1.77;;;7.00;99.90;;;;;;5136237;27;20482;-75
2023/03/03 08:54:09;;;;;;;5.20;2.70;;;7.20;99.90;;;;;;5136216;27;20443;-76
2023/03/03 08:56:36;;;;;;;6.80;2.00;;;7.50;99.90;;;;;;5136171;27;20450;-76
2023/03/03 08:59:02;;;;;;;3.33;2.50;;;7.60;99.90;;;;;;5135781;27;21008;-76
2023/03/03 09:01:29;;;;;;;3.83;2.50;;;7.80;99.90;;;;;;5136060;27;20450;-76
2023/03/03 09:03:56;;;;;;;9.47;2.50;;;7.80;99.90;;;;;;5136755;27;20451;-76
2023/03/03 09:06:23;;;;;;;11.53;3.47;;;7.80;99.90;;;;;;5135671;27;20452;-75
2023/03/03 09:08:51;;;;;;;6.23;1.80;;;7.80;99.90;;;;;;5135854;27;20475;-76
2023/03/03 09:11:24;;;;;;;13.73;2.60;;;7.90;99.90;;;;;;5135827;27;20474;-76
2023/03/03 09:13:52;;;;;;;2.50;2.10;;;8.10;99.90;;;;;;5135618;27;20408;-76
2023/03/03 09:16:20;;;;;;;5.73;2.77;;;8.20;99.90;;;;;;5135413;27;20954;-76
2023/03/03 09:18:47;;;;;;;6.63;3.53;;;8.30;99.90;;;;;;5135333;27;20471;-75
2023/03/03 09:21:21;;;;;;;7.67;4.17;;;8.50;99.90;;;;;;5135662;27;20435;-76
2023/03/03 09:23:55;;;;;;;7.37;3.23;;;8.80;99.90;;;;;;5135662;27;20456;-75
2023/03/03 09:26:26;;;;;;;6.23;2.70;;;9.40;99.90;;;;;;5135647;27;20431;-76
2023/03/03 09:28:54;;;;;;;4.33;2.40;;;10.10;99.90;;;;;;5135514;27;20467;-76
2023/03/03 09:31:33;;;;;;;5.20;3.83;;;10.60;99.90;;;;;;5135086;27;20992;-75
2023/03/03 09:34:01;;;;;;;6.60;3.80;;;10.70;99.90;;;;;;5135564;27;20473;-76
2023/03/03 09:36:30;;;;;;;12.73;4.13;;;10.50;99.90;;;;;;5134903;27;20915;-76
2023/03/03 09:38:58;;;;;;;5.53;2.27;;;10.30;99.90;;;;;;5134931;27;20898;-76
2023/03/03 09:41:54;;;;;;;7.53;4.10;;;10.30;99.90;;;;;;5134573;27;20438;-76
2023/03/03 09:45:16;;;;;;;11.33;4.27;;;10.20;99.90;;;;;;5100881;27;20534;-76
2023/03/03 09:48:10;;;;;;;8.93;3.70;;;10.10;99.90;;;;;;5071612;28;20470;-76
2023/03/03 09:50:49;;;;;;;4.20;2.40;;;10.30;99.90;;;;;;5135180;27;20423;-76
2023/03/03 09:53:28;;;;;;;7.30;5.00;;;10.30;99.90;;;;;;5135014;27;20549;-76
2023/03/03 09:56:00;;;;;;;10.10;4.27;;;10.30;99.90;;;;;;5135092;27;20438;-76
2023/03/03 09:58:46;;;;;;;8.63;2.27;;;10.30;99.90;;;;;;5134677;27;20466;-76
2023/03/03 10:01:31;;;;;;;13.50;4.83;;;10.40;99.90;;;;;;5134956;27;20895;-76
2023/03/03 10:04:37;;;;;;;11.80;2.90;;;10.30;99.90;;;;;;5135748;27;20423;-76
2023/03/03 10:07:25;;;;;;;3.17;1.83;;;10.60;99.90;;;;;;5134798;27;20422;-76
2023/03/03 10:10:21;;;;;;;8.07;4.43;;;10.90;99.90;;;;;;5134676;27;20438;-76
2023/03/03 10:13:01;;;;;;;6.50;3.20;;;12.00;99.90;;;;;;5132394;27;20486;-76
2023/03/03 10:15:39;;;;;;;15.10;4.30;;;12.70;96.80;;;;;;5134618;27;20423;-76
2023/03/03 10:18:15;;;;;;;4.20;3.90;;;13.40;96.30;;;;;;5134145;27;20997;-76
2023/03/03 10:20:54;;;;;;;11.13;3.97;;;14.10;94.70;;;;;;5134221;27;20914;-76
2023/03/03 10:23:35;;;;;;;17.70;5.23;;;14.60;93.00;;;;;;5134443;27;20423;-76
2023/03/03 10:26:16;;;;;;;7.50;4.40;;;14.70;91.00;;;;;;5134460;27;20435;-76
2023/03/03 10:29:15;;;;;;;11.30;5.03;;;14.50;90.10;;;;;;5134329;27;20470;-76
2023/03/03 10:31:54;;;;;;;12.70;4.37;;;13.90;90.00;;;;;;5134318;27;20466;-76
2023/03/03 10:34:38;;;;;;;13.90;4.63;;;13.50;90.70;;;;;;5134399;27;20426;-76
2023/03/03 10:37:10;;;;;;;15.57;5.23;;;13.10;90.40;;;;;;5133669;27;20481;-76
2023/03/03 10:39:54;;;;;;;13.90;5.20;;;13.30;90.70;;;;;;5134265;27;20442;-76
2023/03/03 10:42:34;;;;;;;15.27;6.27;;;14.70;89.30;;;;;;5134253;27;20445;-76
2023/03/03 10:45:21;;;;;;;12.43;5.70;;;15.50;85.10;;;;;;5133934;27;20514;-76
2023/03/03 10:48:11;;;;;;;16.37;4.40;;;15.40;83.30;;;;;;5134145;27;20470;-76
2023/03/03 10:50:50;;;;;;;9.33;4.00;;;14.90;83.50;;;;;;5134107;27;20428;-76
2023/03/03 10:53:25;;;;;;;16.50;4.67;;;13.90;84.30;;;;;;5136561;27;20466;-76
2023/03/03 10:56:03;;;;;;;8.33;4.80;;;13.30;85.70;;;;;;5138408;27;20431;-76
2023/03/03 10:58:53;;;;;;;11.53;5.07;;;12.90;86.40;;;;;;5138291;27;20466;-76
2023/03/03 11:01:28;;;;;;;7.70;3.50;;;13.10;87.10;;;;;;5137855;27;20442;-76
2023/03/03 11:04:27;;;;;;;9.70;4.40;;;13.80;87.30;;;;;;5138219;27;20431;-76
2023/03/03 11:07:03;;;;;;;10.80;4.00;;;14.10;85.20;;;;;;5137993;27;20453;-76
2023/03/03 11:09:49;;;;;;;8.43;4.63;;;14.20;82.40;;;;;;5138162;27;20433;-76
2023/03/03 11:12:26;;;;;;;7.90;4.57;;;13.70;82.40;;;;;;5137684;27;20470;-76
2023/03/03 11:15:09;;;;;;;9.87;4.20;;;13.60;83.90;;;;;;5137991;27;20438;-76
2023/03/03 11:17:51;;;;;;;9.63;4.80;;;13.50;85.00;;;;;;5137543;27;20984;-75
2023/03/03 11:20:31;;;;;;;8.97;4.17;;;13.30;84.80;;;;;;5137628;27;20765;-76
2023/03/03 11:23:07;;;;;;;14.20;4.47;;;12.90;85.70;;;;;;5137955;27;20439;-76
2023/03/03 11:25:44;;;;;;;14.00;5.63;;;12.80;86.90;;;;;;5137681;27;20438;-76
2023/03/03 11:28:33;;;;;;;9.37;4.00;;;12.60;86.20;;;;;;5137871;27;20477;-76
2023/03/03 11:31:11;;;;;;;11.80;4.90;;;12.40;86.70;;;;;;5137551;27;20467;-76
2023/03/03 11:33:50;;;;;;;12.87;3.73;;;12.40;86.40;;;;;;5137418;27;20981;-76
2023/03/03 11:36:23;;;;;;;10.73;4.37;;;12.60;88.10;;;;;;5137250;27;20482;-76
2023/03/03 11:38:56;;;;;;;10.63;4.87;;;12.60;88.00;;;;;;5137657;27;20463;-76
2023/03/03 11:41:37;;;;;;;12.67;4.13;;;12.80;84.30;;;;;;5137684;27;20439;-76
2023/03/03 11:44:10;;;;;;;16.20;4.00;;;12.60;84.60;;;;;;5137264;27;20800;-76
2023/03/03 11:46:45;;;;;;;10.70;5.27;;;12.70;84.40;;;;;;5137555;27;20442;-76
2023/03/03 11:49:21;;;;;;;14.20;4.07;;;12.50;84.00;;;;;;5137481;27;20466;-76
2023/03/03 11:51:53;;;;;;;10.67;3.87;;;12.50;84.30;;;;;;5137321;27;20491;-76
2023/03/03 11:54:24;;;;;;;15.93;4.27;;;12.40;83.80;;;;;;5137115;27;20438;-76
2023/03/03 11:56:55;;;;;;;13.60;4.23;;;12.20;82.00;;;;;;5137324;27;20423;-76
2023/03/03 11:59:48;;;;;;;9.13;4.00;;;11.90;84.10;;;;;;5137350;27;20462;-76
2023/03/03 12:02:44;;;;;;;5.43;3.13;;;11.80;84.30;;;;;;5134638;27;20499;-76
2023/03/03 12:05:19;;;;;;;14.40;2.90;;;11.70;84.10;;;;;;5136105;27;20959;-76
2023/03/03 12:07:52;;;;;;;11.73;4.23;;;11.50;84.70;;;;;;5137140;27;20463;-76
2023/03/03 12:10:27;;;;;;;6.83;3.13;;;11.50;85.50;;;;;;5137183;27;20419;-76
2023/03/03 12:13:03;;;;;;;13.43;5.00;;;11.60;85.90;;;;;;5137035;27;20474;-76
2023/03/03 12:15:37;;;;;;;8.67;4.57;;;11.50;85.20;;;;;;5137064;27;20434;-76
2023/03/03 12:18:19;;;;;;;8.07;3.60;;;11.50;86.50;;;;;;5136935;27;20536;-76
2023/03/03 12:20:57;;;;;;;7.37;4.10;;;11.40;85.30;;;;;;5136986;27;20486;-76
2023/03/03 12:23:41;;;;;;;13.53;4.00;;;11.60;85.40;;;;;;5136908;27;20423;-76
2023/03/03 12:26:16;;;;;;;10.30;3.67;;;11.60;89.10;;;;;;5136885;27;20859;-76
2023/03/03 12:28:50;;;;;;;10.67;3.60;;;11.70;86.00;;;;;;5136786;27;20476;-76
2023/03/03 12:31:29;;;;;;;10.07;4.10;;;11.60;86.00;;;;;;5136802;27;20431;-76
2023/03/03 12:34:02;;;;;;;10.40;3.57;;;11.70;86.50;;;;;;5136417;27;20817;-76
2023/03/03 12:37:04;;;;;;;9.40;3.30;;;11.60;85.00;;;;;;5136262;27;20479;-76
2023/03/03 12:39:48;;;;;;;12.00;3.60;;;11.50;84.80;;;;;;5125110;27;20457;-76
2023/03/03 12:42:25;;;;;;;7.13;4.13;;;11.30;84.90;;;;;;5136726;27;20436;-76
2023/03/03 12:45:04;;;;;;;9.47;3.77;;;11.00;85.30;;;;;;5136512;27;20438;-77
2023/03/03 12:47:38;;;;;;;9.00;2.87;;;10.60;86.70;;;;;;5136725;27;20443;-76
2023/03/03 12:50:32;;;;;;;11.37;4.30;;;10.30;86.50;;;;;;5136404;27;20431;-76
2023/03/03 12:53:12;;;;;;;13.17;3.67;;;10.00;87.70;;;;;;5136448;27;20470;-76
2023/03/03 12:55:49;;;;;;;9.47;3.03;;;9.60;90.00;;;;;;5136658;27;20791;-76
2023/03/03 12:58:27;;;;;;;9.87;3.77;;;9.40;90.60;;;;;;5136167;27;20467;-76
2023/03/03 13:01:00;;;;;;;3.23;1.83;;;9.30;91.00;;;;;;5135966;27;20442;-75
2023/03/03 13:03:39;;;;;;;6.20;2.67;;;9.20;91.50;;;;;;5136073;27;20412;-76
2023/03/03 13:06:15;;;;;;;7.30;3.53;;;9.10;91.30;;;;;;5135779;27;20427;-76
2023/03/03 13:09:06;;;;;;;5.57;2.93;;;9.10;90.80;;;;;;5135649;27;20781;-76
2023/03/03 13:11:55;;;;;;;8.93;2.80;;;8.90;90.70;;;;;;5135686;27;20434;-76
2023/03/03 13:14:28;;;;;;;5.60;1.70;;;8.90;90.90;;;;;;5135781;27;20479;-76
2023/03/03 13:17:05;;;;;;;4.40;2.40;;;8.80;91.30;;;;;;5134620;27;20434;-76